Startpagina
METAR-TAF:

METAR-TAF

Vliegvelden :

Évreux, Frankrijk

breedte: 49-01N, lengte: 001-13E, hoogte: 141 m

Actueel weer

Dit bericht is 24 minuten geleden gemaakt, om 03:00 UTC
Wind 6 kt uit het oosten
Temperatuur 12°C
Vochtigheid 47%
Druk 1015 hPa
Zicht 10 km of meer
geen wolken onder 1500 m en geen cumulonimbus

METAR: LFOE 210300Z AUTO 09006KT CAVOK 12/01 Q1015 NOSIG

Tijdstip: 05:24 (03:24 UTC)

Verwachting

Dit bericht is 13 uur en het 24 minuten geleden gemaakt, om 14:00 UTC
Verwachting geldig van 20 om 15 UTC tot 21 om 15 UTC
Wind 15 kt uit het oosten
Zicht 10 km of meer
geen wolken onder 1500 m en geen cumulonimbus
Tijdelijke
van 20 om 15 UTC tot 20 om 18 UTC
Wind 15 kt uit het oostzuidoosten met uitschieters tot 25 kt

TAF: LFOE 201400Z 2015/2115 09015KT CAVOK TEMPO 2015/2018 11015G25KT

Waarnemingen en weersverwachtingen van meer dan 4000 vliegvelden (METAR en TAF).

De beschikbare stations zijn de gele en rode punten op de kaart.

Ga met uw muis naar het station om de naam te zien.

Klik dan om waarnemingen en weersverwachtingen te zien.

kaart wijzigen: klik op de groene knoppen met een zwart kruis om in te zoomen, op de groene knop met een streepje om uit te zoomen of op de groene pijlen voor aangrenzende kaarten.


METAR-TAF: